createdAt,value
2022-11-05T00:00:40.409Z,98500.16
2022-11-05T00:03:27.454Z,98505.69
2022-11-05T00:06:14.077Z,98499.44
2022-11-05T00:09:01.004Z,98501.25
2022-11-05T00:11:47.810Z,98500.03
2022-11-05T00:14:34.447Z,98497.34
2022-11-05T00:17:02.347Z,98486.25
2022-11-05T00:19:30.497Z,98483.78
2022-11-05T00:22:17.070Z,98477.97
2022-11-05T00:25:03.829Z,98474.50
2022-11-05T00:27:34.334Z,98471.91
2022-11-05T00:30:05.963Z,98471.38
2022-11-05T00:32:34.098Z,98481.50
2022-11-05T00:35:02.479Z,98471.41
2022-11-05T00:37:30.668Z,98482.06
2022-11-05T00:39:58.616Z,98478.41
2022-11-05T00:42:45.741Z,98481.81
2022-11-05T00:45:13.778Z,98494.75
2022-11-05T00:48:08.139Z,98495.16
2022-11-05T00:50:36.050Z,98491.37
2022-11-05T00:53:04.728Z,98486.97
2022-11-05T00:55:40.959Z,98475.06
2022-11-05T00:58:12.720Z,98474.66
2022-11-05T01:00:42.338Z,98478.19
2022-11-05T01:03:13.499Z,98474.13
2022-11-05T01:05:47.079Z,98483.47
2022-11-05T01:08:17.348Z,98486.59
2022-11-05T01:10:55.180Z,98486.22
2022-11-05T01:13:26.167Z,98488.09
2022-11-05T01:15:55.310Z,98498.28
2022-11-05T01:18:24.479Z,98495.50
2022-11-05T01:20:52.389Z,98493.34
2022-11-05T01:23:20.891Z,98497.25
2022-11-05T01:25:49.459Z,98495.72
2022-11-05T01:28:17.374Z,98494.59
2022-11-05T01:30:45.278Z,98499.87
2022-11-05T01:33:13.549Z,98496.62
2022-11-05T01:35:41.799Z,98491.37
2022-11-05T01:38:09.667Z,98485.88
2022-11-05T01:40:37.896Z,98484.53
2022-11-05T01:43:12.010Z,98482.78
2022-11-05T01:45:40.318Z,98491.03
2022-11-05T01:48:33.117Z,98495.25
2022-11-05T01:51:09.307Z,98506.87
2022-11-05T01:53:49.344Z,98513.09
2022-11-05T01:56:21.608Z,98510.81
2022-11-05T01:58:55.238Z,98518.53
2022-11-05T02:01:23.699Z,98519.34
2022-11-05T02:03:54.398Z,98509.06
2022-11-05T02:06:22.598Z,98519.19
2022-11-05T02:09:12.926Z,98504.78
2022-11-05T02:11:41.130Z,98510.81
2022-11-05T02:14:09.008Z,98507.59
2022-11-05T02:17:02.198Z,98499.37
2022-11-05T02:19:48.628Z,98507.47
2022-11-05T02:22:16.588Z,98512.81
2022-11-05T02:24:57.028Z,98519.53
2022-11-05T02:27:52.377Z,98520.25
2022-11-05T02:30:31.247Z,98514.25
2022-11-05T02:33:01.763Z,98520.59
2022-11-05T02:35:57.639Z,98515.81
2022-11-05T02:38:25.399Z,98517.22
2022-11-05T02:41:07.157Z,98513.78
2022-11-05T02:43:58.528Z,98514.06
2022-11-05T02:46:48.789Z,98521.41
2022-11-05T02:49:41.179Z,98520.38
2022-11-05T02:52:15.629Z,98518.03
2022-11-05T02:55:14.089Z,98516.59
2022-11-05T02:57:47.579Z,98519.03
2022-11-05T03:00:37.236Z,98515.50
2022-11-05T03:03:07.278Z,98526.72
2022-11-05T03:06:07.768Z,98526.25
2022-11-05T03:08:50.067Z,98529.69
2022-11-05T03:11:22.698Z,98520.25
2022-11-05T03:14:03.050Z,98507.94
2022-11-05T03:16:47.597Z,98516.28
2022-11-05T03:19:33.567Z,98517.50
2022-11-05T03:22:05.638Z,98524.84
2022-11-05T03:24:36.249Z,98527.78
2022-11-05T03:27:10.868Z,98531.78
2022-11-05T03:29:46.467Z,98533.44
2022-11-05T03:32:16.187Z,98549.75
2022-11-05T03:34:50.618Z,98544.81
2022-11-05T03:37:23.198Z,98549.34
2022-11-05T03:39:54.687Z,98553.44
2022-11-05T03:42:26.807Z,98550.19
2022-11-05T03:44:58.197Z,98549.03
2022-11-05T03:47:29.988Z,98542.63
2022-11-05T03:50:20.859Z,98557.53
2022-11-05T03:52:55.506Z,98550.44
2022-11-05T03:55:28.868Z,98558.59
2022-11-05T03:57:58.671Z,98565.91
2022-11-05T04:00:26.968Z,98569.97
2022-11-05T04:02:55.577Z,98564.62
2022-11-05T04:05:23.586Z,98561.94
2022-11-05T04:08:14.088Z,98554.78
2022-11-05T04:11:05.667Z,98558.06
2022-11-05T04:13:33.944Z,98551.28
2022-11-05T04:16:20.809Z,98547.19
2022-11-05T04:18:48.757Z,98547.03
2022-11-05T04:21:35.576Z,98552.37
2022-11-05T04:24:09.725Z,98544.94
2022-11-05T04:26:40.008Z,98552.34
2022-11-05T04:29:26.817Z,98564.25
2022-11-05T04:31:55.094Z,98555.66
2022-11-05T04:34:23.218Z,98553.66
2022-11-05T04:36:52.462Z,98550.78
2022-11-05T04:39:21.255Z,98537.50
2022-11-05T04:41:49.213Z,98525.16
2022-11-05T04:44:17.508Z,98536.63
2022-11-05T04:46:45.708Z,98543.00
2022-11-05T04:49:13.597Z,98542.28
2022-11-05T04:51:41.497Z,98550.16
2022-11-05T04:54:09.740Z,98544.06
2022-11-05T04:56:37.742Z,98552.87
2022-11-05T04:59:05.558Z,98551.75
2022-11-05T05:01:33.942Z,98549.69
2022-11-05T05:04:01.910Z,98552.25
2022-11-05T05:06:29.838Z,98552.28
2022-11-05T05:08:58.187Z,98544.34
2022-11-05T05:11:26.087Z,98540.53
2022-11-05T05:13:54.009Z,98533.62
2022-11-05T05:16:26.780Z,98538.63
2022-11-05T05:18:55.157Z,98538.25
2022-11-05T05:21:42.552Z,98543.47
2022-11-05T05:24:10.300Z,98553.87
2022-11-05T05:26:40.109Z,98555.88
2022-11-05T05:29:08.089Z,98556.06
2022-11-05T05:31:36.358Z,98555.94
2022-11-05T05:34:05.617Z,98555.50
2022-11-05T05:36:33.608Z,98558.63
2022-11-05T05:39:01.516Z,98563.62
2022-11-05T05:41:29.720Z,98563.09
2022-11-05T05:43:57.621Z,98562.22
2022-11-05T05:46:25.458Z,98559.63
2022-11-05T05:48:53.698Z,98560.75
2022-11-05T05:51:21.668Z,98576.66
2022-11-05T05:53:50.258Z,98584.31
2022-11-05T05:56:20.730Z,98586.72
2022-11-05T05:58:49.283Z,98596.34
2022-11-05T06:01:19.661Z,98603.72
2022-11-05T06:03:49.038Z,98618.09
2022-11-05T06:06:21.340Z,98626.12
2022-11-05T06:08:49.550Z,98630.31
2022-11-05T06:11:17.484Z,98626.63
2022-11-05T06:13:45.468Z,98633.56
2022-11-05T06:16:13.728Z,98635.97
2022-11-05T06:18:41.628Z,98642.66
2022-11-05T06:21:11.589Z,98643.69
2022-11-05T06:23:41.195Z,98652.13
2022-11-05T06:26:11.880Z,98660.84
2022-11-05T06:28:40.327Z,98655.53
2022-11-05T06:31:09.029Z,98661.81
2022-11-05T06:33:36.977Z,98669.06
2022-11-05T06:36:06.477Z,98662.94
2022-11-05T06:38:37.091Z,98661.75
2022-11-05T06:41:10.042Z,98661.31
2022-11-05T06:43:38.356Z,98669.31
2022-11-05T06:46:06.842Z,98668.38
2022-11-05T06:48:35.164Z,98667.34
2022-11-05T06:51:03.826Z,98679.81
2022-11-05T06:53:32.206Z,98690.09
2022-11-05T06:56:04.666Z,98687.59
2022-11-05T06:58:33.766Z,98693.06
2022-11-05T07:01:06.303Z,98691.47
2022-11-05T07:03:35.675Z,98689.72
2022-11-05T07:06:04.629Z,98686.31
2022-11-05T07:08:36.727Z,98690.47
2022-11-05T07:11:05.257Z,98699.69
2022-11-05T07:13:33.225Z,98707.25
2022-11-05T07:16:01.177Z,98699.19
2022-11-05T07:18:29.436Z,98707.28
2022-11-05T07:20:57.435Z,98706.34
2022-11-05T07:23:25.339Z,98708.44
2022-11-05T07:25:53.677Z,98714.56
2022-11-05T07:28:21.617Z,98711.03
2022-11-05T07:30:49.979Z,98705.09
2022-11-05T07:33:18.447Z,98712.59
2022-11-05T07:35:47.187Z,98715.03
2022-11-05T07:38:15.244Z,98709.16
2022-11-05T07:40:43.629Z,98707.63
2022-11-05T07:43:11.779Z,98697.06
2022-11-05T07:45:39.861Z,98708.00
2022-11-05T07:48:08.128Z,98698.09
2022-11-05T07:50:37.216Z,98695.19
2022-11-05T07:53:15.312Z,98692.97
2022-11-05T07:55:46.147Z,98689.63
2022-11-05T07:58:14.588Z,98703.28
2022-11-05T08:00:42.915Z,98699.81
2022-11-05T08:03:14.207Z,98698.97
2022-11-05T08:05:44.915Z,98690.84
2022-11-05T08:08:18.648Z,98685.50
2022-11-05T08:10:47.179Z,98688.44
2022-11-05T08:13:16.190Z,98684.22
2022-11-05T08:15:44.688Z,98685.00
2022-11-05T08:18:17.568Z,98672.28
2022-11-05T08:20:47.177Z,98682.63
2022-11-05T08:23:15.627Z,98665.47
2022-11-05T08:25:43.832Z,98672.50
2022-11-05T08:28:13.158Z,98665.50
2022-11-05T08:30:41.126Z,98667.75
2022-11-05T08:33:11.385Z,98668.25
2022-11-05T08:35:39.997Z,98679.19
2022-11-05T08:38:10.250Z,98681.66
2022-11-05T08:40:38.358Z,98680.69
2022-11-05T08:43:08.202Z,98687.31
2022-11-05T08:45:38.288Z,98688.53
2022-11-05T08:48:09.087Z,98688.13
2022-11-05T08:50:37.699Z,98694.16
2022-11-05T08:53:06.655Z,98692.19
2022-11-05T08:55:35.135Z,98688.81
2022-11-05T08:58:05.789Z,98697.44
2022-11-05T09:00:36.329Z,98699.63
2022-11-05T09:03:06.588Z,98716.75
2022-11-05T09:05:39.448Z,98703.34
2022-11-05T09:08:13.198Z,98714.22
2022-11-05T09:10:41.658Z,98712.59
2022-11-05T09:13:17.940Z,98709.53
2022-11-05T09:15:48.889Z,98707.53
2022-11-05T09:18:18.007Z,98720.31
2022-11-05T09:20:47.498Z,98723.72
2022-11-05T09:23:18.126Z,98722.47
2022-11-05T09:25:46.965Z,98719.28
2022-11-05T09:28:20.558Z,98720.91
2022-11-05T09:30:50.804Z,98726.03
2022-11-05T09:33:20.823Z,98729.78
2022-11-05T09:35:49.421Z,98725.44
2022-11-05T09:38:18.698Z,98725.69
2022-11-05T09:41:13.747Z,98709.69
2022-11-05T09:44:03.506Z,98712.37
2022-11-05T09:46:45.167Z,98713.84
2022-11-05T09:49:27.299Z,98703.44
2022-11-05T09:51:58.090Z,98706.31
2022-11-05T09:54:31.848Z,98711.03
2022-11-05T09:57:02.490Z,98709.09
2022-11-05T09:59:53.497Z,98707.78
2022-11-05T10:02:46.826Z,98714.16
2022-11-05T10:05:16.407Z,98707.06
2022-11-05T10:07:54.955Z,98711.84
2022-11-05T10:10:48.121Z,98706.19
2022-11-05T10:13:34.668Z,98689.97
2022-11-05T10:16:04.535Z,98698.41
2022-11-05T10:18:38.755Z,98702.84
2022-11-05T10:21:08.208Z,98703.66
2022-11-05T10:23:36.887Z,98710.38
2022-11-05T10:26:11.277Z,98707.41
2022-11-05T10:28:39.956Z,98708.44
2022-11-05T10:31:12.705Z,98711.88
2022-11-05T10:33:41.078Z,98704.78
2022-11-05T10:36:19.216Z,98711.13
2022-11-05T10:38:47.706Z,98708.28
2022-11-05T10:41:40.787Z,98709.16
2022-11-05T10:44:19.072Z,98709.47
2022-11-05T10:46:57.798Z,98710.97
2022-11-05T10:49:32.008Z,98713.63
2022-11-05T10:52:12.626Z,98719.47
2022-11-05T10:54:41.398Z,98709.19
2022-11-05T10:57:33.436Z,98709.56
2022-11-05T11:00:17.159Z,98728.50
2022-11-05T11:03:05.978Z,98728.91
2022-11-05T11:05:37.237Z,98740.78
2022-11-05T11:08:22.828Z,98729.22
2022-11-05T11:10:59.266Z,98726.94
2022-11-05T11:13:52.586Z,98725.72
2022-11-05T11:16:23.556Z,98724.31
2022-11-05T11:19:01.139Z,98725.44
2022-11-05T11:21:30.982Z,98718.34
2022-11-05T11:24:04.658Z,98718.78
2022-11-05T11:26:36.038Z,98723.13
2022-11-05T11:29:26.311Z,98732.25
2022-11-05T11:31:56.259Z,98727.03
2022-11-05T11:34:34.204Z,98737.91
2022-11-05T11:37:08.270Z,98736.09
2022-11-05T11:39:37.868Z,98728.37
2022-11-05T11:42:11.848Z,98721.66
2022-11-05T11:44:45.990Z,98734.09
2022-11-05T11:47:17.059Z,98731.06
2022-11-05T11:49:50.506Z,98735.31
2022-11-05T11:52:27.846Z,98739.31
2022-11-05T11:55:19.782Z,98736.91
2022-11-05T11:57:49.697Z,98743.94
2022-11-05T12:00:19.229Z,98743.91
2022-11-05T12:03:22.643Z,98741.25
2022-11-05T12:06:19.789Z,98740.16
2022-11-05T12:09:07.243Z,98734.47
2022-11-05T12:11:56.799Z,98736.91
2022-11-05T12:14:47.001Z,98729.22
2022-11-05T12:17:45.918Z,98733.50
2022-11-05T12:20:57.851Z,98747.28
2022-11-05T12:23:52.208Z,98765.56
2022-11-05T12:26:35.708Z,98763.47
2022-11-05T12:29:19.673Z,98764.22
2022-11-05T12:32:00.029Z,98762.12
2022-11-05T12:34:38.169Z,98768.19
2022-11-05T12:37:50.920Z,98765.25
2022-11-05T12:40:36.958Z,98762.56
2022-11-05T12:43:26.098Z,98760.63
2022-11-05T12:46:21.408Z,98756.91
2022-11-05T12:48:55.376Z,98766.22
2022-11-05T12:51:29.348Z,98766.78
2022-11-05T12:54:12.337Z,98777.12
2022-11-05T12:56:45.678Z,98774.75
2022-11-05T12:59:36.877Z,98784.50
2022-11-05T13:02:35.741Z,98796.16
2022-11-05T13:05:14.800Z,98798.06
2022-11-05T13:07:54.772Z,98789.81
2022-11-05T13:11:03.898Z,98800.28
2022-11-05T13:13:37.488Z,98799.19
2022-11-05T13:16:24.630Z,98792.00
2022-11-05T13:18:56.118Z,98786.31
2022-11-05T13:21:26.479Z,98807.22
2022-11-05T13:24:03.717Z,98807.59
2022-11-05T13:26:38.017Z,98815.88
2022-11-05T13:29:17.826Z,98814.16
2022-11-05T13:31:51.850Z,98820.88
2022-11-05T13:34:19.876Z,98819.25
2022-11-05T13:37:08.566Z,98813.03
2022-11-05T13:39:58.016Z,98820.56
2022-11-05T13:42:38.518Z,98818.53
2022-11-05T13:45:34.456Z,98808.78
2022-11-05T13:48:24.547Z,98810.88
2022-11-05T13:51:11.057Z,98815.88
2022-11-05T13:53:55.607Z,98809.94
2022-11-05T13:56:50.566Z,98824.94
2022-11-05T13:59:55.956Z,98817.00
2022-11-05T14:02:32.051Z,98812.53
2022-11-05T14:05:01.578Z,98815.97
2022-11-05T14:07:32.791Z,98817.41
2022-11-05T14:10:20.778Z,98822.00
2022-11-05T14:12:51.199Z,98826.53
2022-11-05T14:15:28.751Z,98816.16
2022-11-05T14:18:07.018Z,98821.66
2022-11-05T14:20:35.499Z,98818.78
2022-11-05T14:23:24.776Z,98824.25
2022-11-05T14:26:16.457Z,98826.50
2022-11-05T14:28:47.478Z,98826.84
2022-11-05T14:31:18.700Z,98842.28
2022-11-05T14:34:22.650Z,98829.69
2022-11-05T14:37:12.918Z,98832.91
2022-11-05T14:39:41.728Z,98840.97
2022-11-05T14:42:21.129Z,98842.84
2022-11-05T14:45:15.647Z,98842.13
2022-11-05T14:47:55.360Z,98847.94
2022-11-05T14:50:30.449Z,98854.84
2022-11-05T14:53:07.481Z,98852.41
2022-11-05T14:55:39.067Z,98850.56
2022-11-05T14:58:28.807Z,98855.13
2022-11-05T15:00:58.111Z,98860.69
2022-11-05T15:03:33.272Z,98855.19
2022-11-05T15:06:22.956Z,98855.03
2022-11-05T15:08:51.238Z,98863.66
2022-11-05T15:11:24.118Z,98868.75
2022-11-05T15:13:55.375Z,98866.84
2022-11-05T15:16:31.269Z,98867.69
2022-11-05T15:19:00.437Z,98875.91
2022-11-05T15:21:31.286Z,98884.97
2022-11-05T15:23:59.629Z,98881.53
2022-11-05T15:26:27.539Z,98880.53
2022-11-05T15:28:56.320Z,98872.53
2022-11-05T15:31:34.788Z,98884.97
2022-11-05T15:34:26.567Z,98888.66
2022-11-05T15:36:57.536Z,98883.28
2022-11-05T15:39:32.529Z,98885.09
2022-11-05T15:42:04.731Z,98882.78
2022-11-05T15:44:39.020Z,98881.22
2022-11-05T15:47:30.367Z,98894.75
2022-11-05T15:50:01.529Z,98893.59
2022-11-05T15:52:36.721Z,98897.69
2022-11-05T15:55:10.768Z,98893.41
2022-11-05T15:57:52.600Z,98898.63
2022-11-05T16:00:28.999Z,98895.69
2022-11-05T16:03:22.069Z,98899.03
2022-11-05T16:05:50.386Z,98895.72
2022-11-05T16:08:23.918Z,98896.03
2022-11-05T16:10:54.710Z,98904.84
2022-11-05T16:13:34.138Z,98907.81
2022-11-05T16:16:07.372Z,98908.25
2022-11-05T16:18:40.503Z,98918.19
2022-11-05T16:21:11.030Z,98916.28
2022-11-05T16:23:54.129Z,98909.38
2022-11-05T16:27:01.165Z,98925.56
2022-11-05T16:29:33.126Z,98934.50
2022-11-05T16:32:05.263Z,98927.22
2022-11-05T16:34:47.356Z,98939.91
2022-11-05T16:37:16.489Z,98938.22
2022-11-05T16:39:44.917Z,98933.09
2022-11-05T16:42:26.187Z,98931.22
2022-11-05T16:44:55.506Z,98943.53
2022-11-05T16:47:23.766Z,98942.41
2022-11-05T16:49:51.697Z,98947.59
2022-11-05T16:52:20.032Z,98944.97
2022-11-05T16:54:47.915Z,98955.03
2022-11-05T16:57:28.747Z,98948.97
2022-11-05T16:59:58.323Z,98950.06
2022-11-05T17:02:27.021Z,98954.88
2022-11-05T17:04:55.048Z,98960.28
2022-11-05T17:07:23.407Z,98960.31
2022-11-05T17:09:51.306Z,98971.47
2022-11-05T17:12:19.260Z,98956.94
2022-11-05T17:14:47.776Z,98973.66
2022-11-05T17:17:15.670Z,98970.47
2022-11-05T17:19:43.914Z,98965.37
2022-11-05T17:22:12.337Z,98972.37
2022-11-05T17:24:40.237Z,98975.59
2022-11-05T17:27:08.105Z,98973.13
2022-11-05T17:29:36.407Z,98974.09
2022-11-05T17:32:05.918Z,98974.16
2022-11-05T17:34:33.888Z,98985.00
2022-11-05T17:37:02.221Z,98983.53
2022-11-05T17:39:31.827Z,98984.44
2022-11-05T17:41:59.977Z,98982.00
2022-11-05T17:44:28.357Z,98993.03
2022-11-05T17:46:56.287Z,98984.09
2022-11-05T17:49:24.137Z,98991.06
2022-11-05T17:51:52.358Z,98987.47
2022-11-05T17:54:20.311Z,98992.69
2022-11-05T17:56:48.276Z,98995.97
2022-11-05T17:59:16.890Z,98991.75
2022-11-05T18:01:46.147Z,98991.75
2022-11-05T18:04:14.480Z,98993.66
2022-11-05T18:06:42.760Z,98999.62
2022-11-05T18:09:11.509Z,98999.56
2022-11-05T18:11:40.928Z,99001.97
2022-11-05T18:14:09.518Z,99011.00
2022-11-05T18:16:37.468Z,99006.62
2022-11-05T18:19:05.939Z,99004.88
2022-11-05T18:21:33.794Z,99005.69
2022-11-05T18:24:07.975Z,99017.28
2022-11-05T18:26:36.263Z,99019.28
2022-11-05T18:29:05.767Z,99029.03
2022-11-05T18:31:33.748Z,99025.34
2022-11-05T18:34:02.087Z,99029.72
2022-11-05T18:36:31.504Z,99034.47
2022-11-05T18:39:00.767Z,99034.66
2022-11-05T18:41:29.248Z,99041.13
2022-11-05T18:44:01.996Z,99047.50
2022-11-05T18:49:20.148Z,99059.22
2022-11-05T18:51:48.497Z,99068.41
2022-11-05T18:54:16.359Z,99073.03
2022-11-05T18:56:47.021Z,99069.19
2022-11-05T19:02:06.229Z,99073.81
2022-11-05T19:04:38.010Z,99075.88
2022-11-05T19:07:07.252Z,99078.94
2022-11-05T19:09:37.043Z,99080.00
2022-11-05T19:12:05.916Z,99084.38
2022-11-05T19:14:34.441Z,99090.94
2022-11-05T19:17:03.648Z,99090.56
2022-11-05T19:19:31.648Z,99093.75
2022-11-05T19:21:59.647Z,99090.75
2022-11-05T19:24:28.055Z,99103.16
2022-11-05T19:26:55.976Z,99110.91
2022-11-05T19:29:23.838Z,99100.06
2022-11-05T19:31:52.019Z,99112.94
2022-11-05T19:34:20.818Z,99109.03
2022-11-05T19:36:48.768Z,99122.03
2022-11-05T19:39:16.948Z,99127.81
2022-11-05T19:41:44.888Z,99121.75
2022-11-05T19:44:12.789Z,99122.28
2022-11-05T19:46:41.700Z,99130.03
2022-11-05T19:49:10.365Z,99129.53
2022-11-05T19:51:38.449Z,99128.25
2022-11-05T19:54:08.095Z,99133.69
2022-11-05T19:56:38.577Z,99137.81
2022-11-05T19:59:07.328Z,99137.53
2022-11-05T20:01:36.573Z,99143.06
2022-11-05T20:04:06.003Z,99145.50
2022-11-05T20:06:38.967Z,99147.78
2022-11-05T20:09:26.038Z,99151.03
2022-11-05T20:11:56.674Z,99145.69
2022-11-05T20:14:26.340Z,99151.56
2022-11-05T20:16:54.451Z,99150.91
2022-11-05T20:19:23.249Z,99152.00
2022-11-05T20:21:51.642Z,99149.88
2022-11-05T20:24:24.683Z,99160.38
2022-11-05T20:26:54.713Z,99156.06
2022-11-05T20:29:23.167Z,99164.00
2022-11-05T20:31:52.787Z,99164.56
2022-11-05T20:34:21.037Z,99169.56
2022-11-05T20:36:49.001Z,99169.66
2022-11-05T20:39:18.937Z,99174.56
2022-11-05T20:41:48.360Z,99179.69
2022-11-05T20:44:16.377Z,99175.78
2022-11-05T20:46:44.227Z,99175.03
2022-11-05T20:49:12.421Z,99180.84
2022-11-05T20:51:40.366Z,99182.19
2022-11-05T20:54:08.269Z,99185.63
2022-11-05T20:56:36.531Z,99182.16
2022-11-05T20:59:05.579Z,99185.09
2022-11-05T21:01:34.819Z,99187.94
2022-11-05T21:04:03.569Z,99192.59
2022-11-05T21:06:32.396Z,99190.38
2022-11-05T21:09:00.358Z,99195.06
2022-11-05T21:11:28.558Z,99197.31
2022-11-05T21:13:56.485Z,99205.28
2022-11-05T21:16:24.478Z,99203.59
2022-11-05T21:18:52.727Z,99197.12
2022-11-05T21:21:21.047Z,99197.75
2022-11-05T21:23:48.937Z,99196.28
2022-11-05T21:26:18.125Z,99202.22
2022-11-05T21:28:46.199Z,99198.47
2022-11-05T21:31:14.128Z,99202.59
2022-11-05T21:33:42.324Z,99210.47
2022-11-05T21:36:13.599Z,99196.75
2022-11-05T21:38:41.870Z,99203.06
2022-11-05T21:41:10.806Z,99204.31
2022-11-05T21:43:39.650Z,99200.44
2022-11-05T21:46:07.607Z,99216.03
2022-11-05T21:48:36.629Z,99209.66
2022-11-05T21:51:23.128Z,99224.44
2022-11-05T21:54:09.797Z,99216.50
2022-11-05T21:56:57.128Z,99216.69
2022-11-05T21:59:44.327Z,99216.28
2022-11-05T22:02:14.542Z,99213.72
2022-11-05T22:04:49.348Z,99224.09
2022-11-05T22:07:19.707Z,99214.22
2022-11-05T22:09:48.192Z,99222.09
2022-11-05T22:12:16.280Z,99218.28
2022-11-05T22:14:44.506Z,99222.50
2022-11-05T22:17:13.217Z,99220.75
2022-11-05T22:19:41.253Z,99212.69
2022-11-05T22:22:09.246Z,99213.41
2022-11-05T22:24:38.369Z,99221.72
2022-11-05T22:27:09.429Z,99216.53
2022-11-05T22:29:37.969Z,99225.63
2022-11-05T22:32:06.368Z,99221.94
2022-11-05T22:34:34.316Z,99222.41
2022-11-05T22:37:02.629Z,99221.19
2022-11-05T22:39:30.559Z,99221.19
2022-11-05T22:42:00.444Z,99226.13
2022-11-05T22:44:31.415Z,99225.44
2022-11-05T22:46:59.417Z,99225.34
2022-11-05T22:49:27.274Z,99228.53
2022-11-05T22:51:55.601Z,99221.94
2022-11-05T22:54:23.566Z,99222.38
2022-11-05T22:56:52.798Z,99228.88
2022-11-05T22:59:21.019Z,99218.63
2022-11-05T23:01:49.536Z,99217.75
2022-11-05T23:04:17.629Z,99227.22
2022-11-05T23:07:04.328Z,99224.03
2022-11-05T23:09:52.688Z,99227.72
2022-11-05T23:12:28.755Z,99223.28
2022-11-05T23:14:58.028Z,99224.03
2022-11-05T23:17:45.267Z,99223.47
2022-11-05T23:20:35.135Z,99224.63
2022-11-05T23:23:21.947Z,99225.25
2022-11-05T23:25:49.926Z,99234.22
2022-11-05T23:28:21.446Z,99229.56
2022-11-05T23:31:08.245Z,99232.91
2022-11-05T23:33:36.458Z,99237.13
2022-11-05T23:36:22.737Z,99242.31
2022-11-05T23:38:51.037Z,99239.37
2022-11-05T23:41:37.755Z,99235.50
2022-11-05T23:44:24.361Z,99242.66
2022-11-05T23:47:11.025Z,99242.50
2022-11-05T23:49:39.247Z,99240.13
2022-11-05T23:52:07.768Z,99246.28
2022-11-05T23:54:35.638Z,99249.03
2022-11-05T23:57:03.936Z,99248.81
2022-11-05T23:59:31.895Z,99249.03
